Time;durP1;ratioP1;P1;durP2;ratioP2;P2;SDS_P1;SDS_P2;PMS_P1;PMS_P2;Temp;Humidity;BMP_temperature;BMP_pressure;BME280_temperature;BME280_humidity;BME280_pressure;Samples;Min_cycle;Max_cycle;Signal;HPM_P1;HPM_P2
2023/05/16 00:01:12;;;;;;;15.52;3.58;;;;;;;11.27;95.02;101760.09;5053163;28;20041;-67
2023/05/16 00:03:41;;;;;;;15.05;3.67;;;;;;;11.24;95.12;101766.06;5032763;28;20063;-66
2023/05/16 00:06:09;;;;;;;14.18;3.80;;;;;;;11.24;95.65;101760.59;5051647;28;20040;-67
2023/05/16 00:08:36;;;;;;;15.95;3.28;;;;;;;11.22;94.92;101766.28;5058723;28;20072;-67
2023/05/16 00:11:04;;;;;;;13.43;3.50;;;;;;;11.14;95.81;101765.91;5051263;28;20048;-66
2023/05/16 00:13:32;;;;;;;15.30;3.65;;;;;;;11.13;95.85;101759.59;5052728;28;20391;-67
2023/05/16 00:16:01;;;;;;;17.17;4.00;;;;;;;11.14;95.12;101765.91;5055428;28;20477;-66
2023/05/16 00:18:29;;;;;;;16.70;4.15;;;;;;;11.12;94.80;101762.59;5047210;28;20057;-66
2023/05/16 00:20:57;;;;;;;16.33;4.07;;;;;;;11.15;95.47;101767.53;5048652;28;20118;-67
2023/05/16 00:23:24;;;;;;;14.30;3.30;;;;;;;11.13;95.42;101765.03;5056023;28;20050;-67
2023/05/16 00:25:52;;;;;;;13.63;3.25;;;;;;;11.13;95.20;101758.78;5064015;28;20049;-67
2023/05/16 00:28:19;;;;;;;12.80;3.72;;;;;;;11.13;94.63;101765.03;5051050;28;20049;-67
2023/05/16 00:30:47;;;;;;;14.60;3.53;;;;;;;11.14;94.48;101771.34;5049878;28;20631;-66
2023/05/16 00:33:15;;;;;;;14.63;3.45;;;;;;;11.10;94.37;101768.28;5042203;28;20067;-66
2023/05/16 00:35:43;;;;;;;13.93;3.42;;;;;;;11.07;95.15;101772.34;5051677;28;20099;-67
2023/05/16 00:38:11;;;;;;;15.57;3.97;;;;;;;11.08;96.14;101768.50;5051559;28;20045;-66
2023/05/16 00:40:39;;;;;;;18.88;4.03;;;;;;;11.08;97.09;101770.41;5051523;28;20159;-67
2023/05/16 00:43:09;;;;;;;21.88;4.35;;;;;;;11.01;98.11;101778.75;5021377;28;20489;-67
2023/05/16 00:45:37;;;;;;;15.68;3.72;;;;;;;10.97;98.12;101769.44;5054315;28;20053;-66
2023/05/16 00:48:05;;;;;;;15.93;4.53;;;;;;;10.97;98.82;101766.72;5032445;28;20077;-67
2023/05/16 00:50:33;;;;;;;13.48;4.10;;;;;;;10.95;98.23;101768.84;5036538;28;20124;-68
2023/05/16 00:53:01;;;;;;;17.67;4.22;;;;;;;10.94;98.34;101769.09;5009766;28;20053;-67
2023/05/16 00:55:29;;;;;;;17.48;4.30;;;;;;;10.85;98.13;101780.41;5036133;28;20144;-67
2023/05/16 00:57:58;;;;;;;15.25;3.92;;;;;;;10.78;98.45;101773.47;5048133;28;20452;-67
2023/05/16 01:00:26;;;;;;;14.82;3.97;;;;;;;10.76;99.03;101779.16;5041383;28;20173;-67
2023/05/16 01:02:55;;;;;;;11.70;3.22;;;;;;;10.72;98.50;101780.72;5052151;28;20048;-67
2023/05/16 01:05:23;;;;;;;14.38;3.92;;;;;;;10.65;99.12;101774.59;5053746;28;20043;-66
2023/05/16 01:07:51;;;;;;;19.20;5.13;;;;;;;10.60;99.27;101772.59;5016405;28;20493;-66
2023/05/16 01:10:18;;;;;;;15.82;4.15;;;;;;;10.63;98.81;101779.47;5036182;28;20069;-66
2023/05/16 01:13:08;;;;;;;15.95;3.88;;;;;;;10.65;98.38;101772.72;5043974;28;20041;-66
2023/05/16 01:15:49;;;;;;;18.67;4.05;;;;;;;10.65;98.23;101775.44;5049241;28;20052;-67
2023/05/16 01:18:22;;;;;;;20.42;4.32;;;;;;;10.63;97.62;101783.03;5032933;28;20076;-67
2023/05/16 01:21:02;;;;;;;13.35;3.70;;;;;;;10.58;97.54;101785.66;5033278;28;20111;-67
2023/05/16 01:23:42;;;;;;;18.92;3.72;;;;;;;10.50;97.59;101788.78;5036913;28;20049;-66
2023/05/16 01:26:15;;;;;;;15.10;3.97;;;;;;;10.48;97.82;101787.34;5072276;28;20051;-66
2023/05/16 01:28:45;;;;;;;19.75;4.03;;;;;;;10.52;97.63;101785.81;5072188;28;20044;-66
2023/05/16 01:31:13;;;;;;;14.05;3.42;;;;;;;10.57;97.14;101789.44;5060035;28;20041;-66
2023/05/16 01:33:41;;;;;;;17.33;3.78;;;;;;;10.62;96.80;101786.81;5033458;28;20050;-66
2023/05/16 01:36:23;;;;;;;14.93;4.30;;;;;;;10.63;95.76;101793.94;5049520;28;20053;-66
2023/05/16 01:38:54;;;;;;;18.08;4.15;;;;;;;10.57;94.97;101792.16;5033604;28;20045;-66
2023/05/16 01:41:42;;;;;;;16.63;3.80;;;;;;;10.45;95.51;101791.41;5048629;28;20128;-68
2023/05/16 01:44:50;;;;;;;14.52;3.40;;;;;;;10.34;95.66;101784.09;5058790;28;20500;-66
2023/05/16 01:47:20;;;;;;;14.88;3.72;;;;;;;10.33;96.22;101790.63;5051402;28;20049;-66
2023/05/16 01:50:02;;;;;;;14.95;3.88;;;;;;;10.24;95.75;101796.41;5049854;28;20076;-67
2023/05/16 01:52:55;;;;;;;14.95;3.70;;;;;;;10.18;95.88;101797.38;5052245;28;20055;-67
2023/05/16 01:55:29;;;;;;;14.82;3.92;;;;;;;10.17;96.13;101794.91;5039003;28;20045;-68
2023/05/16 01:58:01;;;;;;;18.30;3.80;;;;;;;10.14;95.55;101796.19;5046745;28;20045;-67
2023/05/16 02:00:28;;;;;;;18.50;4.10;;;;;;;10.10;95.21;101805.94;5044694;28;20045;-66
2023/05/16 02:02:59;;;;;;;13.15;3.88;;;;;;;10.07;95.66;101805.59;5040534;28;20409;-66
2023/05/16 02:05:27;;;;;;;14.35;3.53;;;;;;;10.10;95.67;101802.38;5048729;28;20501;-66
2023/05/16 02:07:55;;;;;;;16.35;4.38;;;;;;;10.09;95.41;101804.28;5034405;28;20128;-67
2023/05/16 02:10:23;;;;;;;15.18;3.92;;;;;;;10.08;94.90;101805.34;5045842;28;20043;-69
2023/05/16 02:12:52;;;;;;;12.13;3.53;;;;;;;10.05;94.83;101808.53;5044731;28;20516;-66
2023/05/16 02:15:20;;;;;;;14.27;3.85;;;;;;;10.08;95.06;101802.63;5038501;28;20095;-67
2023/05/16 02:17:48;;;;;;;11.70;3.17;;;;;;;10.10;94.47;101810.53;5053073;28;20048;-67
2023/05/16 02:20:16;;;;;;;14.70;4.00;;;;;;;10.04;94.17;101809.63;5055017;28;20057;-66
2023/05/16 02:22:46;;;;;;;11.30;3.65;;;;;;;10.05;94.67;101813.16;5056715;28;20073;-67
2023/05/16 02:25:15;;;;;;;11.70;3.08;;;;;;;10.01;94.44;101807.38;5055674;28;20110;-66
2023/05/16 02:27:43;;;;;;;12.02;3.40;;;;;;;10.02;94.19;101809.84;5027114;28;20069;-67
2023/05/16 02:30:16;;;;;;;16.20;3.50;;;;;;;9.98;94.08;101813.28;5055396;28;20045;-66
2023/05/16 02:32:44;;;;;;;18.27;3.97;;;;;;;9.99;93.88;101817.69;5044571;28;20051;-66
2023/05/16 02:35:13;;;;;;;13.07;3.65;;;;;;;9.98;93.65;101818.72;5034934;28;20050;-66
2023/05/16 02:37:41;;;;;;;13.43;3.58;;;;;;;9.96;93.80;101820.88;5032160;28;20144;-66
2023/05/16 02:40:09;;;;;;;15.30;3.47;;;;;;;9.93;93.75;101827.63;5048701;28;20053;-66
2023/05/16 02:42:37;;;;;;;14.45;3.65;;;;;;;9.90;93.78;101830.00;5056425;28;20147;-67
2023/05/16 02:45:05;;;;;;;13.32;3.22;;;;;;;9.85;93.79;101830.72;5039051;28;20055;-66
2023/05/16 02:47:33;;;;;;;10.32;3.15;;;;;;;9.86;94.37;101834.25;5054147;28;20489;-66
2023/05/16 02:50:01;;;;;;;15.65;3.50;;;;;;;9.90;94.28;101838.16;5048152;28;20033;-66
2023/05/16 02:52:29;;;;;;;15.77;3.72;;;;;;;9.93;94.13;101838.53;5063882;28;20123;-66
2023/05/16 02:54:56;;;;;;;14.27;3.42;;;;;;;9.95;93.93;101836.38;5088287;28;20051;-63
2023/05/16 02:57:43;;;;;;;14.88;3.72;;;;;;;9.98;93.62;101840.50;5086498;28;20057;-64
2023/05/16 03:00:13;;;;;;;13.77;3.55;;;;;;;9.94;93.46;101839.34;5052838;28;20101;-65
2023/05/16 03:02:45;;;;;;;15.95;4.05;;;;;;;9.93;93.34;101848.56;5060321;28;20041;-64
2023/05/16 03:05:15;;;;;;;16.80;4.47;;;;;;;9.89;93.13;101847.41;5075896;28;20057;-61
2023/05/16 03:07:43;;;;;;;12.98;3.55;;;;;;;9.84;93.35;101848.13;5075754;28;20045;-65
2023/05/16 03:10:11;;;;;;;13.60;3.28;;;;;;;9.82;93.73;101847.53;5045625;28;20051;-65
2023/05/16 03:12:39;;;;;;;10.18;2.97;;;;;;;9.78;94.29;101849.06;5058120;28;20231;-67
2023/05/16 03:15:08;;;;;;;11.65;3.42;;;;;;;9.82;93.97;101851.06;5044756;28;20100;-66
2023/05/16 03:17:36;;;;;;;13.93;3.03;;;;;;;9.85;93.70;101855.22;5062867;28;20124;-66
2023/05/16 03:20:08;;;;;;;13.20;3.20;;;;;;;9.81;93.55;101845.84;5064479;28;20059;-66
2023/05/16 03:22:36;;;;;;;16.73;3.92;;;;;;;9.81;93.39;101856.75;5061731;28;20052;-66
2023/05/16 03:25:04;;;;;;;14.52;3.70;;;;;;;9.81;93.57;101863.03;5058746;28;20099;-66
2023/05/16 03:27:31;;;;;;;13.60;3.35;;;;;;;9.81;93.55;101857.59;5058470;28;20052;-67
2023/05/16 03:30:00;;;;;;;13.00;3.35;;;;;;;9.78;93.60;101858.03;5058100;28;20053;-66
2023/05/16 03:32:28;;;;;;;14.90;4.43;;;;;;;9.76;93.69;101852.00;5032356;28;20040;-66
2023/05/16 03:34:56;;;;;;;9.90;3.10;;;;;;;9.78;94.04;101852.59;5074515;28;20102;-66
2023/05/16 03:37:23;;;;;;;13.57;3.65;;;;;;;9.79;93.98;101867.06;5075529;28;20123;-66
2023/05/16 03:39:51;;;;;;;11.75;3.22;;;;;;;9.80;93.67;101857.81;5073875;28;20136;-66
2023/05/16 03:42:19;;;;;;;11.55;3.03;;;;;;;9.76;94.18;101853.91;5073066;28;20123;-66
2023/05/16 03:44:46;;;;;;;17.08;3.80;;;;;;;9.72;94.08;101866.34;5057520;28;20485;-66
2023/05/16 03:47:14;;;;;;;14.57;3.42;;;;;;;9.71;94.38;101870.94;5073605;28;20401;-67
2023/05/16 03:49:42;;;;;;;13.15;3.13;;;;;;;9.71;94.06;101875.56;5057589;28;20072;-67
2023/05/16 03:52:10;;;;;;;14.18;3.30;;;;;;;9.67;94.36;101877.94;5072181;28;20464;-66
2023/05/16 03:54:38;;;;;;;13.55;3.28;;;;;;;9.64;94.65;101872.13;5058277;28;20512;-67
2023/05/16 03:57:09;;;;;;;18.67;4.00;;;;;;;9.58;94.67;101879.34;5046871;28;20048;-68
2023/05/16 03:59:37;;;;;;;14.45;3.55;;;;;;;9.49;94.98;101888.91;5034570;28;20505;-65
2023/05/16 04:02:05;;;;;;;16.27;3.35;;;;;;;9.44;95.61;101883.34;5047767;28;20517;-67
2023/05/16 04:04:33;;;;;;;15.05;3.25;;;;;;;9.42;95.65;101877.31;5051519;28;20325;-67
2023/05/16 04:07:01;;;;;;;17.55;3.90;;;;;;;9.32;96.21;101892.31;5035277;28;20041;-66
2023/05/16 04:09:29;;;;;;;11.45;3.47;;;;;;;9.32;96.57;101894.22;5053483;28;20052;-66
2023/05/16 04:12:00;;;;;;;12.55;3.30;;;;;;;9.29;96.54;101895.50;5050267;28;20045;-68
2023/05/16 04:14:28;;;;;;;17.33;3.53;;;;;;;9.28;96.82;101896.56;5052447;28;20045;-66
2023/05/16 04:16:56;;;;;;;19.83;3.83;;;;;;;9.28;97.04;101899.28;5052946;28;20041;-66
2023/05/16 04:19:23;;;;;;;14.52;3.55;;;;;;;9.32;96.68;101892.31;5015992;28;20049;-67
2023/05/16 04:21:51;;;;;;;14.60;3.40;;;;;;;9.37;96.43;101903.31;5054128;28;20123;-67
2023/05/16 04:24:19;;;;;;;16.30;3.65;;;;;;;9.41;96.31;101900.16;5048459;28;20059;-67
2023/05/16 04:26:47;;;;;;;13.73;3.75;;;;;;;9.43;96.13;101898.00;5049153;28;20056;-66
2023/05/16 04:29:15;;;;;;;15.55;3.72;;;;;;;9.38;95.99;101906.91;5052078;28;20053;-67
2023/05/16 04:31:42;;;;;;;16.42;3.58;;;;;;;9.31;96.28;101906.97;5053892;28;20044;-66
2023/05/16 04:34:11;;;;;;;16.95;3.70;;;;;;;9.33;96.51;101910.31;5059675;28;20060;-67
2023/05/16 04:36:39;;;;;;;14.30;3.40;;;;;;;9.34;96.54;101911.94;5054636;28;20098;-66
2023/05/16 04:39:10;;;;;;;14.00;3.72;;;;;;;9.35;95.99;101923.66;5036661;28;20044;-67
2023/05/16 04:41:38;;;;;;;13.88;3.85;;;;;;;9.30;95.98;101918.91;5059413;28;20043;-67
2023/05/16 04:44:06;;;;;;;14.57;4.13;;;;;;;9.27;96.69;101927.53;5052665;28;20106;-68
2023/05/16 04:46:34;;;;;;;14.00;3.40;;;;;;;9.26;96.66;101925.03;5051367;28;20115;-66
2023/05/16 04:49:02;;;;;;;15.05;3.30;;;;;;;9.23;96.94;101925.50;5052387;28;20037;-67
2023/05/16 04:51:31;;;;;;;14.85;3.75;;;;;;;9.23;97.30;101937.22;5051471;28;20124;-67
2023/05/16 04:53:59;;;;;;;15.45;3.90;;;;;;;9.25;97.08;101937.81;5050462;28;20072;-68
2023/05/16 04:56:27;;;;;;;13.57;3.78;;;;;;;9.30;96.84;101937.13;5050133;28;20055;-66
2023/05/16 04:58:55;;;;;;;14.30;3.30;;;;;;;9.34;96.78;101933.72;5052275;28;20049;-66
2023/05/16 05:01:22;;;;;;;16.50;4.00;;;;;;;9.38;96.80;101937.63;4348117;28;9999962;-67
2023/05/16 05:03:51;;;;;;;13.00;3.65;;;;;;;9.38;96.02;101929.47;5049867;28;20087;-67
2023/05/16 05:06:18;;;;;;;16.65;4.13;;;;;;;9.37;96.34;101943.28;5050205;28;20041;-67
2023/05/16 05:08:46;;;;;;;15.32;4.05;;;;;;;9.35;96.76;101946.25;5048747;28;20055;-67
2023/05/16 05:11:13;;;;;;;14.55;3.38;;;;;;;9.33;96.58;101942.94;5038996;28;20076;-68
2023/05/16 05:13:41;;;;;;;15.65;3.50;;;;;;;9.34;96.43;101944.59;5028337;28;20125;-67
2023/05/16 05:16:09;;;;;;;15.20;3.53;;;;;;;9.34;96.77;101943.78;5033675;28;20055;-67
2023/05/16 05:18:36;;;;;;;16.30;3.75;;;;;;;9.35;96.08;101948.97;5032403;28;20049;-67
2023/05/16 05:21:04;;;;;;;15.75;3.90;;;;;;;9.31;96.14;101955.94;5063116;28;20496;-69
2023/05/16 05:23:33;;;;;;;14.82;3.85;;;;;;;9.32;96.72;101946.72;5070038;28;20052;-68
2023/05/16 05:26:01;;;;;;;12.38;3.00;;;;;;;9.31;96.60;101950.50;5054328;28;20107;-68
2023/05/16 05:28:29;;;;;;;17.35;3.50;;;;;;;9.33;96.01;101961.13;5048760;28;20088;-69
2023/05/16 05:30:56;;;;;;;13.10;3.22;;;;;;;9.30;96.35;101954.25;5050650;28;20055;-68
2023/05/16 05:33:28;;;;;;;12.32;3.28;;;;;;;9.35;96.23;101950.84;5048703;28;20413;-68
2023/05/16 05:35:56;;;;;;;11.82;3.22;;;;;;;9.38;95.90;101955.84;5051931;28;20064;-68
2023/05/16 05:38:24;;;;;;;15.52;3.90;;;;;;;9.43;96.18;101957.84;5032073;28;20053;-68
2023/05/16 05:40:51;;;;;;;13.73;3.60;;;;;;;9.45;95.82;101961.16;5046267;28;20558;-69
2023/05/16 05:43:19;;;;;;;13.88;3.70;;;;;;;9.50;96.01;101964.00;5039197;28;20063;-69
2023/05/16 05:45:47;;;;;;;15.25;3.40;;;;;;;9.53;94.99;101967.13;5039619;28;20053;-67
2023/05/16 05:48:15;;;;;;;13.10;3.40;;;;;;;9.56;95.20;101974.81;5033278;28;20077;-69
2023/05/16 05:50:42;;;;;;;12.88;3.08;;;;;;;9.65;94.79;101967.16;5048427;28;20057;-67
2023/05/16 05:53:10;;;;;;;15.48;3.63;;;;;;;9.66;94.11;101973.41;5051877;28;20059;-67
2023/05/16 05:55:40;;;;;;;16.42;3.78;;;;;;;9.71;94.37;101971.63;5030998;28;20049;-68
2023/05/16 05:58:08;;;;;;;10.40;2.90;;;;;;;9.76;93.51;101974.47;5049288;28;20049;-68
2023/05/16 06:00:36;;;;;;;14.10;3.33;;;;;;;9.79;92.61;101979.47;5043024;28;20068;-68
2023/05/16 06:03:04;;;;;;;13.75;3.22;;;;;;;9.84;92.11;101976.06;5050877;28;20466;-68
2023/05/16 06:05:32;;;;;;;17.35;3.30;;;;;;;9.86;91.49;101979.38;5049491;28;20404;-67
2023/05/16 06:08:00;;;;;;;10.50;3.20;;;;;;;9.87;91.83;101985.66;5052449;28;20045;-68
2023/05/16 06:10:27;;;;;;;12.63;3.70;;;;;;;9.89;91.24;101986.25;5033868;28;20049;-68
2023/05/16 06:12:55;;;;;;;12.75;3.22;;;;;;;9.91;91.58;101986.81;5043496;28;20464;-70
2023/05/16 06:15:23;;;;;;;13.50;3.13;;;;;;;9.94;91.39;101991.81;5033079;28;20049;-69
2023/05/16 06:17:51;;;;;;;13.43;3.58;;;;;;;9.97;91.77;101994.06;5051018;28;20140;-67
2023/05/16 06:20:19;;;;;;;14.30;3.40;;;;;;;10.02;91.65;101999.63;5042264;28;20049;-70
2023/05/16 06:22:47;;;;;;;14.35;3.38;;;;;;;10.07;91.43;101996.19;5041384;28;20136;-68
2023/05/16 06:25:15;;;;;;;11.30;3.30;;;;;;;10.10;91.22;101999.28;5051461;28;20045;-68
2023/05/16 06:27:43;;;;;;;16.92;3.70;;;;;;;10.05;90.95;102004.59;5050385;28;20048;-68
2023/05/16 06:30:11;;;;;;;17.65;3.40;;;;;;;10.02;91.30;102010.50;5059901;28;20403;-66
2023/05/16 06:32:41;;;;;;;11.55;3.28;;;;;;;9.98;90.47;102006.59;5053458;28;20080;-68
2023/05/16 06:35:09;;;;;;;15.30;3.65;;;;;;;9.94;90.86;102016.31;5050883;28;20041;-68
2023/05/16 06:37:37;;;;;;;17.40;3.72;;;;;;;9.91;90.71;102000.44;5033366;28;20559;-68
2023/05/16 06:40:07;;;;;;;16.85;3.78;;;;;;;9.93;91.42;102007.31;5058651;28;20056;-67
2023/05/16 06:42:35;;;;;;;12.93;3.40;;;;;;;9.95;91.22;102004.34;5044095;28;20059;-67
2023/05/16 06:45:02;;;;;;;17.10;3.80;;;;;;;9.98;89.48;102010.16;5055149;28;20076;-68
2023/05/16 06:47:31;;;;;;;16.80;3.90;;;;;;;9.95;89.54;102009.78;5052099;28;20044;-68
2023/05/16 06:49:59;;;;;;;10.98;2.95;;;;;;;9.94;88.77;102002.69;5059576;28;20049;-66
2023/05/16 06:52:27;;;;;;;16.30;3.63;;;;;;;9.98;89.71;102003.88;5061496;28;20045;-66
2023/05/16 06:54:54;;;;;;;11.48;3.00;;;;;;;10.01;88.97;102006.16;5046261;28;20056;-65
2023/05/16 06:57:22;;;;;;;12.98;3.60;;;;;;;10.01;86.67;102019.75;5067123;28;20167;-64
2023/05/16 06:59:50;;;;;;;11.05;3.05;;;;;;;10.01;85.46;102003.41;5069511;28;20052;-63
2023/05/16 07:02:18;;;;;;;12.95;3.45;;;;;;;10.03;85.70;102014.91;5066196;28;20438;-65
2023/05/16 07:04:46;;;;;;;14.90;3.30;;;;;;;10.05;86.04;102017.38;5046615;28;20063;-66
2023/05/16 07:07:14;;;;;;;10.35;2.70;;;;;;;10.08;86.15;102011.44;5065288;28;20106;-65
2023/05/16 07:09:42;;;;;;;15.93;3.65;;;;;;;10.13;85.22;102012.44;5047737;28;20421;-66
2023/05/16 07:12:10;;;;;;;14.27;3.20;;;;;;;10.18;85.20;102009.81;5061471;28;20099;-66
2023/05/16 07:14:39;;;;;;;12.32;2.90;;;;;;;10.21;84.39;102009.34;5058881;28;20044;-66
2023/05/16 07:17:07;;;;;;;10.70;3.25;;;;;;;10.26;83.44;102014.09;5056176;28;20075;-65
2023/05/16 07:19:35;;;;;;;13.10;3.00;;;;;;;10.23;80.40;102018.09;5055599;28;20420;-67
2023/05/16 07:22:04;;;;;;;13.85;3.13;;;;;;;10.28;82.42;102013.84;5061463;28;20112;-65
2023/05/16 07:24:32;;;;;;;10.57;3.35;;;;;;;10.34;78.11;102010.19;5040565;28;20131;-67
2023/05/16 07:27:00;;;;;;;10.90;3.03;;;;;;;10.29;75.29;102023.72;5052640;28;20598;-67
2023/05/16 07:29:29;;;;;;;15.88;3.13;;;;;;;10.31;75.02;102007.97;5054780;28;20082;-66
2023/05/16 07:31:56;;;;;;;8.70;3.08;;;;;;;10.35;75.47;102020.88;5058112;28;20049;-66
2023/05/16 07:34:25;;;;;;;12.93;2.53;;;;;;;10.37;74.76;102026.09;5054761;28;20528;-66
2023/05/16 07:36:52;;;;;;;11.18;3.00;;;;;;;10.43;76.05;102022.41;5054166;28;20088;-67
2023/05/16 07:39:20;;;;;;;9.85;2.90;;;;;;;10.48;76.69;102018.97;5059383;28;20159;-66
2023/05/16 07:41:48;;;;;;;12.43;3.17;;;;;;;10.56;77.98;102016.72;5037700;28;20486;-65
2023/05/16 07:44:15;;;;;;;11.95;3.30;;;;;;;10.62;77.95;102021.19;5054222;28;20520;-67
2023/05/16 07:46:43;;;;;;;10.60;3.17;;;;;;;10.60;76.32;102023.34;5053808;28;20549;-67
2023/05/16 07:49:12;;;;;;;8.38;2.78;;;;;;;10.63;78.19;102022.03;5053650;28;20049;-67
2023/05/16 07:51:39;;;;;;;14.70;3.05;;;;;;;10.65;76.78;102019.88;5048489;28;20045;-66
2023/05/16 07:54:07;;;;;;;11.98;2.83;;;;;;;10.68;79.29;102018.59;5054442;28;20054;-67
2023/05/16 07:56:35;;;;;;;11.05;2.83;;;;;;;10.74;79.35;102015.72;5053868;28;20516;-65
2023/05/16 07:59:04;;;;;;;14.55;2.72;;;;;;;10.73;76.80;102035.06;5066261;28;20055;-67
2023/05/16 08:01:33;;;;;;;15.35;3.28;;;;;;;10.68;75.10;102029.50;5050950;28;20080;-66
2023/05/16 08:04:00;;;;;;;10.18;2.88;;;;;;;10.73;74.95;102027.72;5033999;28;20061;-66
2023/05/16 08:06:28;;;;;;;12.40;2.85;;;;;;;10.84;75.67;102026.03;5033646;28;20041;-67
2023/05/16 08:08:56;;;;;;;10.38;2.90;;;;;;;10.89;74.81;102028.88;5045354;28;20045;-67
2023/05/16 08:11:24;;;;;;;15.10;2.72;;;;;;;10.84;74.90;102028.75;5019921;28;20405;-66
2023/05/16 08:13:52;;;;;;;14.77;3.72;;;;;;;10.80;75.98;102028.41;5053625;28;20550;-67
2023/05/16 08:16:19;;;;;;;15.85;3.00;;;;;;;10.77;78.64;102028.88;5052616;28;20048;-68
2023/05/16 08:18:47;;;;;;;13.45;2.85;;;;;;;10.74;80.02;102029.38;5037110;28;20094;-66
2023/05/16 08:21:15;;;;;;;14.30;3.28;;;;;;;10.73;80.26;102026.91;5054500;28;20117;-66
2023/05/16 08:23:44;;;;;;;11.57;2.78;;;;;;;10.68;79.45;102034.94;5053289;28;20137;-66
2023/05/16 08:26:12;;;;;;;10.93;2.72;;;;;;;10.69;78.32;102026.53;5037390;28;20075;-67
2023/05/16 08:28:39;;;;;;;11.75;2.88;;;;;;;10.74;79.66;102039.44;5063256;28;20052;-67
2023/05/16 08:31:07;;;;;;;15.20;3.08;;;;;;;10.78;76.83;102025.09;5074157;28;20049;-67
2023/05/16 08:33:35;;;;;;;10.55;2.47;;;;;;;10.90;77.07;102022.34;5053361;28;20163;-67
2023/05/16 08:36:03;;;;;;;7.93;2.67;;;;;;;10.97;77.96;102023.06;5055048;28;20045;-67
2023/05/16 08:38:30;;;;;;;12.35;2.75;;;;;;;11.02;77.14;102035.97;5067575;28;20090;-67
2023/05/16 08:40:58;;;;;;;8.43;2.20;;;;;;;11.04;76.25;102037.38;5073455;28;20080;-66
2023/05/16 08:43:26;;;;;;;10.10;2.70;;;;;;;11.01;78.69;102029.66;5073460;28;20056;-67
2023/05/16 08:45:54;;;;;;;10.95;2.97;;;;;;;10.97;79.52;102025.78;5045843;28;20080;-68
2023/05/16 08:48:23;;;;;;;13.10;2.80;;;;;;;10.96;80.03;102029.56;5044057;28;20048;-67
2023/05/16 08:50:52;;;;;;;12.48;2.72;;;;;;;10.97;80.08;102016.78;5053403;28;20056;-67
2023/05/16 08:53:27;;;;;;;11.45;2.40;;;;;;;10.96;78.65;102026.84;5037438;28;20079;-67
2023/05/16 08:55:55;;;;;;;11.17;2.83;;;;;;;10.96;78.79;102024.09;5043650;28;20378;-66
2023/05/16 08:58:23;;;;;;;10.75;2.80;;;;;;;11.00;78.77;102021.75;5071309;28;20048;-67
2023/05/16 09:00:51;;;;;;;10.45;2.45;;;;;;;11.02;77.52;102020.44;5039123;28;20512;-66
2023/05/16 09:03:20;;;;;;;7.70;2.20;;;;;;;11.09;76.64;102014.84;5057000;28;20061;-65
2023/05/16 09:05:49;;;;;;;10.80;2.80;;;;;;;11.15;74.92;102029.41;5056354;28;20055;-66
2023/05/16 09:08:16;;;;;;;8.23;2.25;;;;;;;11.22;75.09;102013.72;5064016;28;20056;-66
2023/05/16 09:10:44;;;;;;;9.07;2.33;;;;;;;11.34;73.19;102022.69;5053536;28;20480;-67
2023/05/16 09:13:12;;;;;;;7.90;2.33;;;;;;;11.49;71.43;102022.97;5072564;28;20052;-66
2023/05/16 09:15:39;;;;;;;8.18;2.47;;;;;;;11.56;69.66;102022.81;5060049;28;20068;-66
2023/05/16 09:18:13;;;;;;;9.43;2.40;;;;;;;11.58;69.45;102014.41;5066678;28;20519;-67
2023/05/16 09:20:45;;;;;;;9.27;2.70;;;;;;;11.58;70.51;102028.03;5056337;28;20056;-66
2023/05/16 09:23:13;;;;;;;5.65;2.05;;;;;;;11.61;70.93;102022.09;5058445;28;20045;-66
2023/05/16 09:25:41;;;;;;;8.15;2.60;;;;;;;11.58;72.47;102022.59;5062440;28;20512;-67
2023/05/16 09:28:11;;;;;;;8.80;2.63;;;;;;;11.56;73.05;102027.44;5057854;28;20040;-66
2023/05/16 09:30:38;;;;;;;8.20;2.55;;;;;;;11.56;72.93;102033.72;5038378;28;20073;-67
2023/05/16 09:33:07;;;;;;;8.55;2.42;;;;;;;11.57;72.76;102031.81;5044863;28;20049;-66
2023/05/16 09:35:34;;;;;;;11.73;2.60;;;;;;;11.56;69.35;102035.63;5058299;28;20047;-66
2023/05/16 09:38:16;;;;;;;11.50;3.08;;;;;;;11.49;73.22;102041.25;5055217;28;20398;-66
2023/05/16 09:40:45;;;;;;;8.07;2.58;;;;;;;11.48;73.70;102045.06;5032600;28;20050;-66
2023/05/16 09:43:15;;;;;;;16.00;2.88;;;;;;;11.45;75.16;102024.53;5051340;28;20080;-67
2023/05/16 09:45:48;;;;;;;8.30;2.70;;;;;;;11.45;75.26;102027.28;5053465;28;20049;-66
2023/05/16 09:48:16;;;;;;;18.25;3.53;;;;;;;11.46;75.98;102031.66;5036542;28;20508;-65
2023/05/16 09:50:53;;;;;;;8.63;2.33;;;;;;;11.45;74.19;102049.09;5052620;28;20048;-65
2023/05/16 09:53:30;;;;;;;10.48;2.60;;;;;;;11.39;73.62;102041.06;5067130;28;20082;-65
2023/05/16 09:55:59;;;;;;;6.50;2.30;;;;;;;11.43;73.47;102039.50;5075635;28;20555;-66
2023/05/16 09:58:29;;;;;;;9.50;2.28;;;;;;;11.50;71.38;102032.00;5071903;28;20569;-65
2023/05/16 10:00:58;;;;;;;8.35;2.75;;;;;;;11.59;69.20;102035.16;5059665;28;20060;-66
2023/05/16 10:03:26;;;;;;;10.13;2.95;;;;;;;11.68;67.47;102028.22;5054519;28;20053;-66
2023/05/16 10:05:55;;;;;;;16.10;2.58;;;;;;;11.80;67.13;102018.06;5052486;28;20076;-67
2023/05/16 10:08:27;;;;;;;9.13;2.30;;;;;;;11.90;66.33;102017.44;5039310;28;20404;-66
2023/05/16 10:10:55;;;;;;;13.82;2.50;;;;;;;12.01;65.88;102023.91;5038987;28;20041;-66
2023/05/16 10:13:34;;;;;;;8.32;2.25;;;;;;;12.09;67.09;102023.47;5044516;28;20111;-66
2023/05/16 10:16:07;;;;;;;12.38;2.67;;;;;;;12.10;66.59;102019.69;5055020;28;20044;-65
2023/05/16 10:18:35;;;;;;;11.75;2.50;;;;;;;12.09;65.96;102024.28;5069109;28;20048;-67
2023/05/16 10:21:10;;;;;;;7.90;2.28;;;;;;;12.02;64.62;102018.19;4337351;28;10000600;-68
2023/05/16 10:23:41;;;;;;;10.02;2.60;;;;;;;12.00;63.10;102014.03;5045370;28;20044;-65
2023/05/16 10:26:12;;;;;;;8.60;2.45;;;;;;;12.01;63.76;102026.63;5048222;28;20607;-66
2023/05/16 10:28:41;;;;;;;7.22;1.88;;;;;;;12.00;61.33;102028.53;5050918;28;20324;-66
2023/05/16 10:31:10;;;;;;;10.38;2.25;;;;;;;12.03;62.45;102028.03;5051126;28;20049;-69
2023/05/16 10:33:39;;;;;;;6.43;2.10;;;;;;;12.04;60.88;102026.13;5064949;28;20056;-66
2023/05/16 10:36:08;;;;;;;6.28;1.98;;;;;;;12.01;59.96;102024.72;5062226;28;20115;-65
2023/05/16 10:38:38;;;;;;;6.82;2.03;;;;;;;12.02;61.30;102022.81;5052911;28;20036;-66
2023/05/16 10:41:06;;;;;;;9.77;2.30;;;;;;;12.09;61.04;102018.00;5035739;28;20049;-68
2023/05/16 10:43:34;;;;;;;5.82;1.77;;;;;;;12.23;59.27;102019.34;5051558;28;20056;-65
2023/05/16 10:46:11;;;;;;;8.57;2.47;;;;;;;12.41;58.31;102017.41;5031672;28;20061;-66
2023/05/16 10:48:40;;;;;;;6.95;2.20;;;;;;;12.54;55.00;102014.31;5031558;28;20046;-66
2023/05/16 10:51:33;;;;;;;7.72;2.10;;;;;;;12.64;55.80;102013.63;5015458;28;20053;-67
2023/05/16 10:54:13;;;;;;;7.18;2.10;;;;;;;12.70;55.17;102016.19;5049352;28;20049;-66
2023/05/16 10:56:42;;;;;;;6.32;2.05;;;;;;;12.71;54.55;102015.09;5060995;28;20691;-67
2023/05/16 10:59:30;;;;;;;10.13;2.67;;;;;;;12.80;55.31;102012.78;5039317;28;20049;-66
2023/05/16 11:01:58;;;;;;;7.88;2.00;;;;;;;12.88;55.54;102020.53;5057995;28;20040;-66
2023/05/16 11:04:46;;;;;;;6.20;1.90;;;;;;;12.90;53.57;102021.09;5051898;28;20079;-64
2023/05/16 11:07:16;;;;;;;7.32;2.10;;;;;;;12.91;55.04;102017.28;5047511;28;20057;-66
2023/05/16 11:09:45;;;;;;;11.02;2.38;;;;;;;12.85;56.73;102012.00;5047928;28;20041;-63
2023/05/16 11:12:12;;;;;;;6.53;2.08;;;;;;;12.79;57.43;102016.56;5034169;28;20064;-63
2023/05/16 11:14:42;;;;;;;7.90;2.13;;;;;;;12.74;57.07;102016.50;5050815;28;20057;-61
2023/05/16 11:17:12;;;;;;;6.82;2.20;;;;;;;12.69;56.40;102020.00;5050790;28;20045;-63
2023/05/16 11:19:40;;;;;;;7.75;2.30;;;;;;;12.71;55.98;102017.84;5049473;28;20046;-62
2023/05/16 11:22:26;;;;;;;13.38;2.63;;;;;;;12.68;55.05;102023.00;5049771;28;20064;-65
2023/05/16 11:25:00;;;;;;;6.80;1.85;;;;;;;12.66;54.56;102023.25;5036525;28;20037;-66
2023/05/16 11:27:32;;;;;;;8.48;2.33;;;;;;;12.66;55.34;102020.50;5034577;28;20079;-65
2023/05/16 11:30:12;;;;;;;6.88;2.10;;;;;;;12.72;55.77;102027.72;5047015;28;20045;-65
2023/05/16 11:32:42;;;;;;;7.63;2.47;;;;;;;12.84;55.99;102024.84;5062242;28;20132;-66